sensor_id;sensor_type;location;lat;lon;timestamp;P1;durP1;ratioP1;P2;durP2;ratioP2
10461;SDS011;5278;42.656;23.374;2022-12-08T00:01:25;50.60;;;29.50;;
10461;SDS011;5278;42.656;23.374;2022-12-08T00:03:54;52.40;;;30.77;;
10461;SDS011;5278;42.656;23.374;2022-12-08T00:06:24;52.67;;;32.73;;
10461;SDS011;5278;42.656;23.374;2022-12-08T00:09:14;57.27;;;32.40;;
10461;SDS011;5278;42.656;23.374;2022-12-08T00:11:51;55.93;;;33.53;;
10461;SDS011;5278;42.656;23.374;2022-12-08T00:14:22;57.77;;;32.87;;
10461;SDS011;5278;42.656;23.374;2022-12-08T00:16:51;54.43;;;30.93;;
10461;SDS011;5278;42.656;23.374;2022-12-08T00:19:18;51.47;;;31.27;;
10461;SDS011;5278;42.656;23.374;2022-12-08T00:21:45;49.57;;;29.60;;
10461;SDS011;5278;42.656;23.374;2022-12-08T00:24:12;54.77;;;30.03;;
10461;SDS011;5278;42.656;23.374;2022-12-08T00:26:39;50.57;;;29.90;;
10461;SDS011;5278;42.656;23.374;2022-12-08T00:29:08;36.73;;;23.70;;
10461;SDS011;5278;42.656;23.374;2022-12-08T00:31:35;46.37;;;27.33;;
10461;SDS011;5278;42.656;23.374;2022-12-08T00:34:02;49.27;;;27.57;;
10461;SDS011;5278;42.656;23.374;2022-12-08T00:36:29;42.87;;;27.30;;
10461;SDS011;5278;42.656;23.374;2022-12-08T00:38:57;44.87;;;27.57;;
10461;SDS011;5278;42.656;23.374;2022-12-08T00:41:25;45.53;;;28.33;;
10461;SDS011;5278;42.656;23.374;2022-12-08T00:44:12;41.73;;;26.73;;
10461;SDS011;5278;42.656;23.374;2022-12-08T00:46:40;45.77;;;28.83;;
10461;SDS011;5278;42.656;23.374;2022-12-08T00:49:08;39.30;;;26.10;;
10461;SDS011;5278;42.656;23.374;2022-12-08T00:51:35;47.20;;;28.17;;
10461;SDS011;5278;42.656;23.374;2022-12-08T00:54:02;47.80;;;29.77;;
10461;SDS011;5278;42.656;23.374;2022-12-08T00:56:31;50.43;;;27.90;;
10461;SDS011;5278;42.656;23.374;2022-12-08T00:58:58;47.37;;;28.07;;
10461;SDS011;5278;42.656;23.374;2022-12-08T01:01:29;48.73;;;26.60;;
10461;SDS011;5278;42.656;23.374;2022-12-08T01:03:55;40.73;;;27.40;;
10461;SDS011;5278;42.656;23.374;2022-12-08T01:06:22;40.90;;;26.60;;
10461;SDS011;5278;42.656;23.374;2022-12-08T01:08:49;44.23;;;27.83;;
10461;SDS011;5278;42.656;23.374;2022-12-08T01:11:17;38.63;;;23.90;;
10461;SDS011;5278;42.656;23.374;2022-12-08T01:13:44;43.57;;;26.13;;
10461;SDS011;5278;42.656;23.374;2022-12-08T01:16:17;46.17;;;25.03;;
10461;SDS011;5278;42.656;23.374;2022-12-08T01:18:46;38.33;;;25.07;;
10461;SDS011;5278;42.656;23.374;2022-12-08T01:21:13;44.50;;;26.60;;
10461;SDS011;5278;42.656;23.374;2022-12-08T01:23:40;38.93;;;24.20;;
10461;SDS011;5278;42.656;23.374;2022-12-08T01:26:08;40.57;;;25.10;;
10461;SDS011;5278;42.656;23.374;2022-12-08T01:28:37;43.67;;;25.87;;
10461;SDS011;5278;42.656;23.374;2022-12-08T01:31:08;43.80;;;24.60;;
10461;SDS011;5278;42.656;23.374;2022-12-08T01:33:38;29.73;;;20.50;;
10461;SDS011;5278;42.656;23.374;2022-12-08T01:36:08;35.10;;;20.57;;
10461;SDS011;5278;42.656;23.374;2022-12-08T01:38:44;36.10;;;22.43;;
10461;SDS011;5278;42.656;23.374;2022-12-08T01:41:12;39.73;;;23.80;;
10461;SDS011;5278;42.656;23.374;2022-12-08T01:46:46;36.90;;;23.00;;
10461;SDS011;5278;42.656;23.374;2022-12-08T01:49:14;30.73;;;18.30;;
10461;SDS011;5278;42.656;23.374;2022-12-08T01:51:48;35.03;;;21.23;;
10461;SDS011;5278;42.656;23.374;2022-12-08T01:54:20;37.90;;;22.37;;
10461;SDS011;5278;42.656;23.374;2022-12-08T01:56:53;43.37;;;24.37;;
10461;SDS011;5278;42.656;23.374;2022-12-08T01:59:24;39.00;;;23.97;;
10461;SDS011;5278;42.656;23.374;2022-12-08T02:01:53;41.70;;;24.27;;
10461;SDS011;5278;42.656;23.374;2022-12-08T02:04:22;41.50;;;24.27;;
10461;SDS011;5278;42.656;23.374;2022-12-08T02:06:50;35.73;;;23.83;;
10461;SDS011;5278;42.656;23.374;2022-12-08T02:09:19;40.07;;;23.53;;
10461;SDS011;5278;42.656;23.374;2022-12-08T02:11:47;36.73;;;23.10;;
10461;SDS011;5278;42.656;23.374;2022-12-08T02:14:16;37.80;;;25.83;;
10461;SDS011;5278;42.656;23.374;2022-12-08T02:16:48;37.13;;;22.67;;
10461;SDS011;5278;42.656;23.374;2022-12-08T02:22:30;34.10;;;21.67;;
10461;SDS011;5278;42.656;23.374;2022-12-08T02:25:07;36.03;;;20.87;;
10461;SDS011;5278;42.656;23.374;2022-12-08T02:27:42;32.67;;;21.40;;
10461;SDS011;5278;42.656;23.374;2022-12-08T02:30:19;35.93;;;21.93;;
10461;SDS011;5278;42.656;23.374;2022-12-08T02:33:04;32.50;;;21.23;;
10461;SDS011;5278;42.656;23.374;2022-12-08T02:35:56;30.60;;;17.43;;
10461;SDS011;5278;42.656;23.374;2022-12-08T02:38:29;26.90;;;17.23;;
10461;SDS011;5278;42.656;23.374;2022-12-08T02:41:08;23.80;;;15.63;;
10461;SDS011;5278;42.656;23.374;2022-12-08T02:43:44;24.83;;;15.87;;
10461;SDS011;5278;42.656;23.374;2022-12-08T02:46:14;24.00;;;15.27;;
10461;SDS011;5278;42.656;23.374;2022-12-08T02:48:47;26.03;;;16.17;;
10461;SDS011;5278;42.656;23.374;2022-12-08T02:51:17;18.63;;;12.47;;
10461;SDS011;5278;42.656;23.374;2022-12-08T02:53:44;23.37;;;13.23;;
10461;SDS011;5278;42.656;23.374;2022-12-08T02:56:14;19.93;;;12.83;;
10461;SDS011;5278;42.656;23.374;2022-12-08T03:01:50;18.47;;;12.40;;
10461;SDS011;5278;42.656;23.374;2022-12-08T03:04:36;23.47;;;15.57;;
10461;SDS011;5278;42.656;23.374;2022-12-08T03:07:11;21.77;;;12.70;;
10461;SDS011;5278;42.656;23.374;2022-12-08T03:09:45;18.00;;;13.00;;
10461;SDS011;5278;42.656;23.374;2022-12-08T03:12:17;18.97;;;13.23;;
10461;SDS011;5278;42.656;23.374;2022-12-08T03:14:51;19.40;;;12.23;;
10461;SDS011;5278;42.656;23.374;2022-12-08T03:17:22;21.63;;;13.37;;
10461;SDS011;5278;42.656;23.374;2022-12-08T03:19:53;19.80;;;13.40;;
10461;SDS011;5278;42.656;23.374;2022-12-08T03:22:23;23.40;;;15.07;;
10461;SDS011;5278;42.656;23.374;2022-12-08T03:24:52;27.90;;;15.97;;
10461;SDS011;5278;42.656;23.374;2022-12-08T03:27:22;23.40;;;15.37;;
10461;SDS011;5278;42.656;23.374;2022-12-08T03:29:52;20.67;;;15.00;;
10461;SDS011;5278;42.656;23.374;2022-12-08T03:32:21;23.73;;;15.20;;
10461;SDS011;5278;42.656;23.374;2022-12-08T03:34:52;27.57;;;15.97;;
10461;SDS011;5278;42.656;23.374;2022-12-08T03:37:24;23.23;;;14.97;;
10461;SDS011;5278;42.656;23.374;2022-12-08T03:39:53;29.63;;;17.50;;
10461;SDS011;5278;42.656;23.374;2022-12-08T03:42:21;26.70;;;15.60;;
10461;SDS011;5278;42.656;23.374;2022-12-08T03:44:47;25.53;;;15.67;;
10461;SDS011;5278;42.656;23.374;2022-12-08T03:47:14;25.53;;;16.80;;
10461;SDS011;5278;42.656;23.374;2022-12-08T03:49:41;29.53;;;16.30;;
10461;SDS011;5278;42.656;23.374;2022-12-08T03:52:08;23.90;;;15.63;;
10461;SDS011;5278;42.656;23.374;2022-12-08T03:54:36;25.10;;;15.70;;
10461;SDS011;5278;42.656;23.374;2022-12-08T03:57:03;26.60;;;15.53;;
10461;SDS011;5278;42.656;23.374;2022-12-08T03:59:30;32.37;;;15.67;;
10461;SDS011;5278;42.656;23.374;2022-12-08T04:01:57;22.50;;;15.23;;
10461;SDS011;5278;42.656;23.374;2022-12-08T04:04:24;24.30;;;16.00;;
10461;SDS011;5278;42.656;23.374;2022-12-08T04:06:52;21.93;;;15.60;;
10461;SDS011;5278;42.656;23.374;2022-12-08T04:09:20;24.10;;;13.93;;
10461;SDS011;5278;42.656;23.374;2022-12-08T04:11:48;19.00;;;13.10;;
10461;SDS011;5278;42.656;23.374;2022-12-08T04:14:15;24.13;;;13.27;;
10461;SDS011;5278;42.656;23.374;2022-12-08T04:16:43;20.40;;;13.50;;
10461;SDS011;5278;42.656;23.374;2022-12-08T04:19:10;20.40;;;12.73;;
10461;SDS011;5278;42.656;23.374;2022-12-08T04:21:37;21.30;;;14.40;;
10461;SDS011;5278;42.656;23.374;2022-12-08T04:24:05;18.57;;;12.10;;
10461;SDS011;5278;42.656;23.374;2022-12-08T04:26:32;19.80;;;12.87;;
10461;SDS011;5278;42.656;23.374;2022-12-08T04:29:00;22.53;;;13.47;;
10461;SDS011;5278;42.656;23.374;2022-12-08T04:31:27;22.93;;;15.03;;
10461;SDS011;5278;42.656;23.374;2022-12-08T04:33:54;25.57;;;15.17;;
10461;SDS011;5278;42.656;23.374;2022-12-08T04:36:21;23.63;;;13.67;;
10461;SDS011;5278;42.656;23.374;2022-12-08T04:38:47;22.33;;;14.37;;
10461;SDS011;5278;42.656;23.374;2022-12-08T04:41:14;23.27;;;14.67;;
10461;SDS011;5278;42.656;23.374;2022-12-08T04:43:41;20.53;;;13.73;;
10461;SDS011;5278;42.656;23.374;2022-12-08T04:46:10;17.27;;;10.93;;
10461;SDS011;5278;42.656;23.374;2022-12-08T04:48:38;22.17;;;13.90;;
10461;SDS011;5278;42.656;23.374;2022-12-08T04:51:06;17.57;;;11.87;;
10461;SDS011;5278;42.656;23.374;2022-12-08T04:53:39;16.40;;;10.63;;
10461;SDS011;5278;42.656;23.374;2022-12-08T04:56:09;16.07;;;10.63;;
10461;SDS011;5278;42.656;23.374;2022-12-08T04:58:37;17.20;;;10.77;;
10461;SDS011;5278;42.656;23.374;2022-12-08T05:01:05;16.70;;;10.60;;
10461;SDS011;5278;42.656;23.374;2022-12-08T05:03:33;18.07;;;11.47;;
10461;SDS011;5278;42.656;23.374;2022-12-08T05:06:01;16.13;;;10.53;;
10461;SDS011;5278;42.656;23.374;2022-12-08T05:08:31;16.40;;;10.50;;
10461;SDS011;5278;42.656;23.374;2022-12-08T05:11:02;16.00;;;10.87;;
10461;SDS011;5278;42.656;23.374;2022-12-08T05:13:29;17.07;;;11.67;;
10461;SDS011;5278;42.656;23.374;2022-12-08T05:16:02;15.97;;;11.13;;
10461;SDS011;5278;42.656;23.374;2022-12-08T05:18:30;16.03;;;11.07;;
10461;SDS011;5278;42.656;23.374;2022-12-08T05:20:59;15.53;;;11.30;;
10461;SDS011;5278;42.656;23.374;2022-12-08T05:23:26;16.10;;;11.57;;
10461;SDS011;5278;42.656;23.374;2022-12-08T05:25:53;18.57;;;13.37;;
10461;SDS011;5278;42.656;23.374;2022-12-08T05:28:20;18.80;;;13.40;;
10461;SDS011;5278;42.656;23.374;2022-12-08T05:30:47;20.03;;;12.87;;
10461;SDS011;5278;42.656;23.374;2022-12-08T05:33:14;21.00;;;12.47;;
10461;SDS011;5278;42.656;23.374;2022-12-08T05:35:41;23.77;;;14.43;;
10461;SDS011;5278;42.656;23.374;2022-12-08T05:38:10;26.87;;;18.73;;
10461;SDS011;5278;42.656;23.374;2022-12-08T05:40:37;27.40;;;16.83;;
10461;SDS011;5278;42.656;23.374;2022-12-08T05:43:04;32.33;;;20.33;;
10461;SDS011;5278;42.656;23.374;2022-12-08T05:45:32;35.43;;;24.23;;
10461;SDS011;5278;42.656;23.374;2022-12-08T05:47:59;34.90;;;22.77;;
10461;SDS011;5278;42.656;23.374;2022-12-08T05:50:26;34.60;;;22.03;;
10461;SDS011;5278;42.656;23.374;2022-12-08T05:52:53;36.43;;;21.10;;
10461;SDS011;5278;42.656;23.374;2022-12-08T05:55:22;39.13;;;22.63;;
10461;SDS011;5278;42.656;23.374;2022-12-08T05:57:49;35.43;;;23.13;;
10461;SDS011;5278;42.656;23.374;2022-12-08T06:00:17;37.00;;;22.97;;
10461;SDS011;5278;42.656;23.374;2022-12-08T06:02:44;39.27;;;23.10;;
10461;SDS011;5278;42.656;23.374;2022-12-08T06:05:12;41.53;;;23.77;;
10461;SDS011;5278;42.656;23.374;2022-12-08T06:07:39;37.13;;;23.13;;
10461;SDS011;5278;42.656;23.374;2022-12-08T06:10:06;36.03;;;22.07;;
10461;SDS011;5278;42.656;23.374;2022-12-08T06:12:35;41.00;;;23.63;;
10461;SDS011;5278;42.656;23.374;2022-12-08T06:15:02;38.63;;;23.10;;
10461;SDS011;5278;42.656;23.374;2022-12-08T06:17:30;35.63;;;21.47;;
10461;SDS011;5278;42.656;23.374;2022-12-08T06:19:57;37.80;;;22.60;;
10461;SDS011;5278;42.656;23.374;2022-12-08T06:22:24;37.67;;;23.27;;
10461;SDS011;5278;42.656;23.374;2022-12-08T06:24:50;35.10;;;21.70;;
10461;SDS011;5278;42.656;23.374;2022-12-08T06:27:17;33.90;;;21.13;;
10461;SDS011;5278;42.656;23.374;2022-12-08T06:29:47;31.17;;;19.73;;
10461;SDS011;5278;42.656;23.374;2022-12-08T06:32:13;38.63;;;22.67;;
10461;SDS011;5278;42.656;23.374;2022-12-08T06:34:40;35.73;;;21.10;;
10461;SDS011;5278;42.656;23.374;2022-12-08T06:37:08;34.10;;;20.73;;
10461;SDS011;5278;42.656;23.374;2022-12-08T06:39:35;39.93;;;22.80;;
10461;SDS011;5278;42.656;23.374;2022-12-08T06:42:02;45.40;;;24.97;;
10461;SDS011;5278;42.656;23.374;2022-12-08T06:44:47;40.47;;;24.33;;
10461;SDS011;5278;42.656;23.374;2022-12-08T06:47:19;38.50;;;23.03;;
10461;SDS011;5278;42.656;23.374;2022-12-08T06:49:47;38.73;;;24.87;;
10461;SDS011;5278;42.656;23.374;2022-12-08T06:52:14;40.97;;;25.10;;
10461;SDS011;5278;42.656;23.374;2022-12-08T06:54:41;36.17;;;23.90;;
10461;SDS011;5278;42.656;23.374;2022-12-08T06:57:08;34.30;;;22.43;;
10461;SDS011;5278;42.656;23.374;2022-12-08T06:59:35;25.00;;;18.27;;
10461;SDS011;5278;42.656;23.374;2022-12-08T07:02:03;32.07;;;19.83;;
10461;SDS011;5278;42.656;23.374;2022-12-08T07:04:30;26.70;;;19.03;;
10461;SDS011;5278;42.656;23.374;2022-12-08T07:06:57;26.63;;;20.20;;
10461;SDS011;5278;42.656;23.374;2022-12-08T07:09:24;29.33;;;20.33;;
10461;SDS011;5278;42.656;23.374;2022-12-08T07:11:51;33.10;;;21.40;;
10461;SDS011;5278;42.656;23.374;2022-12-08T07:14:17;34.47;;;21.70;;
10461;SDS011;5278;42.656;23.374;2022-12-08T07:16:47;34.63;;;20.77;;
10461;SDS011;5278;42.656;23.374;2022-12-08T07:19:16;27.30;;;20.00;;
10461;SDS011;5278;42.656;23.374;2022-12-08T07:21:43;34.50;;;20.73;;
10461;SDS011;5278;42.656;23.374;2022-12-08T07:24:09;28.20;;;20.00;;
10461;SDS011;5278;42.656;23.374;2022-12-08T07:26:37;29.70;;;19.10;;
10461;SDS011;5278;42.656;23.374;2022-12-08T07:29:04;28.97;;;18.33;;
10461;SDS011;5278;42.656;23.374;2022-12-08T07:31:32;25.37;;;18.17;;
10461;SDS011;5278;42.656;23.374;2022-12-08T07:33:59;23.33;;;16.03;;
10461;SDS011;5278;42.656;23.374;2022-12-08T07:36:28;21.63;;;15.63;;
10461;SDS011;5278;42.656;23.374;2022-12-08T07:38:56;24.80;;;17.53;;
10461;SDS011;5278;42.656;23.374;2022-12-08T07:41:24;22.47;;;16.00;;
10461;SDS011;5278;42.656;23.374;2022-12-08T07:43:51;23.40;;;16.27;;
10461;SDS011;5278;42.656;23.374;2022-12-08T07:46:19;21.77;;;16.83;;
10461;SDS011;5278;42.656;23.374;2022-12-08T07:48:47;24.10;;;17.77;;
10461;SDS011;5278;42.656;23.374;2022-12-08T07:51:15;30.27;;;21.53;;
10461;SDS011;5278;42.656;23.374;2022-12-08T07:53:47;42.33;;;24.50;;
10461;SDS011;5278;42.656;23.374;2022-12-08T07:56:14;30.53;;;21.60;;
10461;SDS011;5278;42.656;23.374;2022-12-08T07:58:42;27.70;;;19.30;;
10461;SDS011;5278;42.656;23.374;2022-12-08T08:01:18;28.20;;;19.33;;
10461;SDS011;5278;42.656;23.374;2022-12-08T08:03:46;26.97;;;19.67;;
10461;SDS011;5278;42.656;23.374;2022-12-08T08:06:14;29.70;;;20.73;;
10461;SDS011;5278;42.656;23.374;2022-12-08T08:08:41;34.97;;;20.20;;
10461;SDS011;5278;42.656;23.374;2022-12-08T08:11:09;33.03;;;20.03;;
10461;SDS011;5278;42.656;23.374;2022-12-08T08:13:36;31.97;;;21.03;;
10461;SDS011;5278;42.656;23.374;2022-12-08T08:16:03;29.03;;;18.77;;
10461;SDS011;5278;42.656;23.374;2022-12-08T08:18:31;34.50;;;21.03;;
10461;SDS011;5278;42.656;23.374;2022-12-08T08:20:59;34.10;;;20.43;;
10461;SDS011;5278;42.656;23.374;2022-12-08T08:23:26;28.47;;;21.47;;
10461;SDS011;5278;42.656;23.374;2022-12-08T08:25:53;29.10;;;20.03;;
10461;SDS011;5278;42.656;23.374;2022-12-08T08:28:21;28.37;;;20.73;;
10461;SDS011;5278;42.656;23.374;2022-12-08T08:30:48;33.43;;;21.60;;
10461;SDS011;5278;42.656;23.374;2022-12-08T08:33:15;28.83;;;18.50;;
10461;SDS011;5278;42.656;23.374;2022-12-08T08:35:42;28.07;;;18.30;;
10461;SDS011;5278;42.656;23.374;2022-12-08T08:38:09;21.67;;;15.00;;
10461;SDS011;5278;42.656;23.374;2022-12-08T08:40:36;26.20;;;18.77;;
10461;SDS011;5278;42.656;23.374;2022-12-08T08:43:04;26.07;;;17.93;;
10461;SDS011;5278;42.656;23.374;2022-12-08T08:45:33;27.37;;;18.83;;
10461;SDS011;5278;42.656;23.374;2022-12-08T08:48:01;29.33;;;19.80;;
10461;SDS011;5278;42.656;23.374;2022-12-08T08:50:28;34.70;;;20.23;;
10461;SDS011;5278;42.656;23.374;2022-12-08T08:52:55;31.27;;;19.67;;
10461;SDS011;5278;42.656;23.374;2022-12-08T08:55:21;30.83;;;19.30;;
10461;SDS011;5278;42.656;23.374;2022-12-08T08:57:48;20.47;;;15.23;;
10461;SDS011;5278;42.656;23.374;2022-12-08T09:00:16;28.83;;;19.63;;
10461;SDS011;5278;42.656;23.374;2022-12-08T09:02:45;22.07;;;16.17;;
10461;SDS011;5278;42.656;23.374;2022-12-08T09:05:11;23.50;;;15.33;;
10461;SDS011;5278;42.656;23.374;2022-12-08T09:07:38;19.40;;;13.63;;
10461;SDS011;5278;42.656;23.374;2022-12-08T09:10:06;20.23;;;15.53;;
10461;SDS011;5278;42.656;23.374;2022-12-08T09:12:33;18.03;;;12.27;;
10461;SDS011;5278;42.656;23.374;2022-12-08T09:15:01;19.60;;;13.37;;
10461;SDS011;5278;42.656;23.374;2022-12-08T09:17:28;21.20;;;13.03;;
10461;SDS011;5278;42.656;23.374;2022-12-08T09:19:57;15.43;;;12.00;;
10461;SDS011;5278;42.656;23.374;2022-12-08T09:22:25;17.67;;;12.10;;
10461;SDS011;5278;42.656;23.374;2022-12-08T09:24:52;16.53;;;12.57;;
10461;SDS011;5278;42.656;23.374;2022-12-08T09:27:20;14.63;;;11.40;;
10461;SDS011;5278;42.656;23.374;2022-12-08T09:29:47;17.93;;;13.17;;
10461;SDS011;5278;42.656;23.374;2022-12-08T09:32:15;18.27;;;13.33;;
10461;SDS011;5278;42.656;23.374;2022-12-08T09:34:42;14.50;;;11.87;;
10461;SDS011;5278;42.656;23.374;2022-12-08T09:37:10;16.57;;;10.77;;
10461;SDS011;5278;42.656;23.374;2022-12-08T09:39:37;13.10;;;11.13;;
10461;SDS011;5278;42.656;23.374;2022-12-08T09:42:04;16.97;;;11.47;;
10461;SDS011;5278;42.656;23.374;2022-12-08T09:44:37;14.10;;;9.90;;
10461;SDS011;5278;42.656;23.374;2022-12-08T09:47:14;15.87;;;10.73;;
10461;SDS011;5278;42.656;23.374;2022-12-08T09:49:47;9.30;;;8.13;;
10461;SDS011;5278;42.656;23.374;2022-12-08T09:52:24;12.30;;;9.30;;
10461;SDS011;5278;42.656;23.374;2022-12-08T09:54:56;10.60;;;8.77;;
10461;SDS011;5278;42.656;23.374;2022-12-08T09:57:26;13.07;;;10.63;;
10461;SDS011;5278;42.656;23.374;2022-12-08T09:59:54;25.17;;;14.73;;
10461;SDS011;5278;42.656;23.374;2022-12-08T10:02:28;16.83;;;12.80;;
10461;SDS011;5278;42.656;23.374;2022-12-08T10:04:56;24.30;;;14.10;;
10461;SDS011;5278;42.656;23.374;2022-12-08T10:07:29;20.63;;;13.07;;
10461;SDS011;5278;42.656;23.374;2022-12-08T10:10:05;24.77;;;12.90;;
10461;SDS011;5278;42.656;23.374;2022-12-08T10:12:41;18.93;;;11.90;;
10461;SDS011;5278;42.656;23.374;2022-12-08T10:15:30;31.37;;;18.97;;
10461;SDS011;5278;42.656;23.374;2022-12-08T10:18:09;36.63;;;22.07;;
10461;SDS011;5278;42.656;23.374;2022-12-08T10:20:39;34.60;;;21.83;;
10461;SDS011;5278;42.656;23.374;2022-12-08T10:23:14;26.03;;;15.37;;
10461;SDS011;5278;42.656;23.374;2022-12-08T10:25:48;25.90;;;15.77;;
10461;SDS011;5278;42.656;23.374;2022-12-08T10:28:17;19.07;;;15.23;;
10461;SDS011;5278;42.656;23.374;2022-12-08T10:30:44;26.73;;;18.80;;
10461;SDS011;5278;42.656;23.374;2022-12-08T10:33:11;21.87;;;15.90;;
10461;SDS011;5278;42.656;23.374;2022-12-08T10:35:41;30.47;;;19.73;;
10461;SDS011;5278;42.656;23.374;2022-12-08T10:38:17;24.70;;;17.77;;
10461;SDS011;5278;42.656;23.374;2022-12-08T10:40:47;29.93;;;17.30;;
10461;SDS011;5278;42.656;23.374;2022-12-08T10:43:20;32.83;;;19.67;;
10461;SDS011;5278;42.656;23.374;2022-12-08T10:45:49;31.90;;;20.43;;
10461;SDS011;5278;42.656;23.374;2022-12-08T10:48:17;25.50;;;17.67;;
10461;SDS011;5278;42.656;23.374;2022-12-08T10:50:46;24.53;;;15.80;;
10461;SDS011;5278;42.656;23.374;2022-12-08T10:53:24;19.70;;;14.97;;
10461;SDS011;5278;42.656;23.374;2022-12-08T10:55:52;23.17;;;14.47;;
10461;SDS011;5278;42.656;23.374;2022-12-08T10:58:34;18.40;;;13.37;;
10461;SDS011;5278;42.656;23.374;2022-12-08T11:01:05;22.43;;;14.23;;
10461;SDS011;5278;42.656;23.374;2022-12-08T11:03:38;38.67;;;20.07;;
10461;SDS011;5278;42.656;23.374;2022-12-08T11:06:12;20.50;;;14.00;;
10461;SDS011;5278;42.656;23.374;2022-12-08T11:08:57;21.10;;;13.70;;
10461;SDS011;5278;42.656;23.374;2022-12-08T11:11:36;19.27;;;13.90;;
10461;SDS011;5278;42.656;23.374;2022-12-08T11:14:05;20.17;;;13.10;;
10461;SDS011;5278;42.656;23.374;2022-12-08T11:16:34;21.23;;;13.07;;
10461;SDS011;5278;42.656;23.374;2022-12-08T11:19:03;24.10;;;15.43;;
10461;SDS011;5278;42.656;23.374;2022-12-08T11:21:33;19.73;;;13.60;;
10461;SDS011;5278;42.656;23.374;2022-12-08T11:24:11;20.00;;;14.13;;
10461;SDS011;5278;42.656;23.374;2022-12-08T11:26:47;23.07;;;14.20;;
10461;SDS011;5278;42.656;23.374;2022-12-08T11:29:17;23.17;;;13.97;;
10461;SDS011;5278;42.656;23.374;2022-12-08T11:31:46;35.37;;;19.80;;
10461;SDS011;5278;42.656;23.374;2022-12-08T11:34:17;21.37;;;13.57;;
10461;SDS011;5278;42.656;23.374;2022-12-08T11:36:48;34.80;;;20.00;;
10461;SDS011;5278;42.656;23.374;2022-12-08T11:39:19;21.33;;;12.83;;
10461;SDS011;5278;42.656;23.374;2022-12-08T11:41:47;19.20;;;12.97;;
10461;SDS011;5278;42.656;23.374;2022-12-08T11:44:21;19.37;;;11.70;;
10461;SDS011;5278;42.656;23.374;2022-12-08T11:46:54;18.17;;;11.13;;
10461;SDS011;5278;42.656;23.374;2022-12-08T11:49:30;17.57;;;11.20;;
10461;SDS011;5278;42.656;23.374;2022-12-08T11:52:01;13.13;;;9.30;;
10461;SDS011;5278;42.656;23.374;2022-12-08T11:54:41;11.67;;;9.33;;
10461;SDS011;5278;42.656;23.374;2022-12-08T11:57:12;28.00;;;13.37;;
10461;SDS011;5278;42.656;23.374;2022-12-08T11:59:41;30.07;;;14.77;;
10461;SDS011;5278;42.656;23.374;2022-12-08T12:02:11;17.77;;;11.63;;
10461;SDS011;5278;42.656;23.374;2022-12-08T12:04:41;13.73;;;10.17;;
10461;SDS011;5278;42.656;23.374;2022-12-08T12:07:21;11.20;;;7.43;;
10461;SDS011;5278;42.656;23.374;2022-12-08T12:10:20;9.07;;;6.10;;
10461;SDS011;5278;42.656;23.374;2022-12-08T12:13:07;17.53;;;10.93;;
10461;SDS011;5278;42.656;23.374;2022-12-08T12:18:55;10.10;;;7.23;;
10461;SDS011;5278;42.656;23.374;2022-12-08T12:21:25;9.87;;;6.90;;
10461;SDS011;5278;42.656;23.374;2022-12-08T12:23:59;11.13;;;7.17;;
10461;SDS011;5278;42.656;23.374;2022-12-08T12:26:34;18.17;;;6.90;;
10461;SDS011;5278;42.656;23.374;2022-12-08T12:29:04;12.37;;;7.97;;
10461;SDS011;5278;42.656;23.374;2022-12-08T12:31:39;12.70;;;8.93;;
10461;SDS011;5278;42.656;23.374;2022-12-08T12:34:13;17.87;;;9.37;;
10461;SDS011;5278;42.656;23.374;2022-12-08T12:36:46;9.97;;;7.13;;
10461;SDS011;5278;42.656;23.374;2022-12-08T12:39:16;12.03;;;7.77;;
10461;SDS011;5278;42.656;23.374;2022-12-08T12:41:47;12.60;;;8.33;;
10461;SDS011;5278;42.656;23.374;2022-12-08T12:47:13;12.57;;;8.00;;
10461;SDS011;5278;42.656;23.374;2022-12-08T12:50:11;14.33;;;9.03;;
10461;SDS011;5278;42.656;23.374;2022-12-08T12:52:46;12.93;;;9.67;;
10461;SDS011;5278;42.656;23.374;2022-12-08T12:55:27;15.57;;;9.40;;
10461;SDS011;5278;42.656;23.374;2022-12-08T13:04:16;19.73;;;9.87;;
10461;SDS011;5278;42.656;23.374;2022-12-08T13:06:46;16.07;;;9.60;;
10461;SDS011;5278;42.656;23.374;2022-12-08T13:09:22;15.60;;;9.93;;
10461;SDS011;5278;42.656;23.374;2022-12-08T13:11:55;14.47;;;8.80;;
10461;SDS011;5278;42.656;23.374;2022-12-08T13:14:27;13.43;;;8.90;;
10461;SDS011;5278;42.656;23.374;2022-12-08T13:16:56;17.73;;;10.30;;
10461;SDS011;5278;42.656;23.374;2022-12-08T13:19:25;14.20;;;8.40;;
10461;SDS011;5278;42.656;23.374;2022-12-08T13:21:55;13.30;;;9.00;;
10461;SDS011;5278;42.656;23.374;2022-12-08T13:24:28;17.90;;;9.43;;
10461;SDS011;5278;42.656;23.374;2022-12-08T13:33:09;15.30;;;10.47;;
10461;SDS011;5278;42.656;23.374;2022-12-08T13:35:43;14.93;;;9.67;;
10461;SDS011;5278;42.656;23.374;2022-12-08T13:38:14;19.37;;;10.70;;
10461;SDS011;5278;42.656;23.374;2022-12-08T13:40:45;16.93;;;10.33;;
10461;SDS011;5278;42.656;23.374;2022-12-08T13:43:15;14.87;;;10.63;;
10461;SDS011;5278;42.656;23.374;2022-12-08T13:45:46;15.17;;;10.20;;
10461;SDS011;5278;42.656;23.374;2022-12-08T13:48:17;13.77;;;10.73;;
10461;SDS011;5278;42.656;23.374;2022-12-08T13:50:51;18.03;;;12.30;;
10461;SDS011;5278;42.656;23.374;2022-12-08T13:53:22;13.33;;;9.57;;
10461;SDS011;5278;42.656;23.374;2022-12-08T13:55:54;15.40;;;10.23;;
10461;SDS011;5278;42.656;23.374;2022-12-08T13:58:25;18.73;;;10.07;;
10461;SDS011;5278;42.656;23.374;2022-12-08T14:00:59;16.77;;;10.27;;
10461;SDS011;5278;42.656;23.374;2022-12-08T14:03:30;16.57;;;10.70;;
10461;SDS011;5278;42.656;23.374;2022-12-08T14:06:11;16.57;;;10.47;;
10461;SDS011;5278;42.656;23.374;2022-12-08T14:08:39;17.47;;;10.93;;
10461;SDS011;5278;42.656;23.374;2022-12-08T14:11:09;17.23;;;11.17;;
10461;SDS011;5278;42.656;23.374;2022-12-08T14:13:57;18.17;;;10.37;;
10461;SDS011;5278;42.656;23.374;2022-12-08T14:16:28;20.13;;;10.50;;
10461;SDS011;5278;42.656;23.374;2022-12-08T14:19:05;14.63;;;10.13;;
10461;SDS011;5278;42.656;23.374;2022-12-08T14:21:45;18.93;;;11.00;;
10461;SDS011;5278;42.656;23.374;2022-12-08T14:24:13;18.50;;;10.63;;
10461;SDS011;5278;42.656;23.374;2022-12-08T14:26:40;15.93;;;11.07;;
10461;SDS011;5278;42.656;23.374;2022-12-08T14:29:10;16.47;;;10.67;;
10461;SDS011;5278;42.656;23.374;2022-12-08T14:31:53;18.57;;;11.43;;
10461;SDS011;5278;42.656;23.374;2022-12-08T14:34:20;23.87;;;11.67;;
10461;SDS011;5278;42.656;23.374;2022-12-08T14:36:50;17.47;;;10.83;;
10461;SDS011;5278;42.656;23.374;2022-12-08T14:39:18;15.37;;;11.13;;
10461;SDS011;5278;42.656;23.374;2022-12-08T14:41:57;21.30;;;10.93;;
10461;SDS011;5278;42.656;23.374;2022-12-08T14:44:24;20.73;;;11.70;;
10461;SDS011;5278;42.656;23.374;2022-12-08T14:47:05;20.80;;;12.70;;
10461;SDS011;5278;42.656;23.374;2022-12-08T14:49:33;20.90;;;12.03;;
10461;SDS011;5278;42.656;23.374;2022-12-08T14:52:02;20.67;;;12.77;;
10461;SDS011;5278;42.656;23.374;2022-12-08T14:54:35;20.17;;;12.30;;
10461;SDS011;5278;42.656;23.374;2022-12-08T14:57:02;22.80;;;12.33;;
10461;SDS011;5278;42.656;23.374;2022-12-08T14:59:32;17.83;;;12.00;;
10461;SDS011;5278;42.656;23.374;2022-12-08T15:02:10;21.23;;;13.13;;
10461;SDS011;5278;42.656;23.374;2022-12-08T15:04:47;22.07;;;14.13;;
10461;SDS011;5278;42.656;23.374;2022-12-08T15:07:20;29.00;;;14.87;;
10461;SDS011;5278;42.656;23.374;2022-12-08T15:09:49;28.47;;;14.33;;